createdAt,value
2023-01-29T00:00:30.712Z,18.60
2023-01-29T00:01:30.724Z,18.10
2023-01-29T00:02:30.813Z,18.20
2023-01-29T00:03:30.692Z,18.50
2023-01-29T00:04:31.689Z,18.60
2023-01-29T00:05:31.677Z,18.00
2023-01-29T00:06:30.754Z,17.90
2023-01-29T00:07:30.667Z,18.40
2023-01-29T00:08:30.680Z,18.50
2023-01-29T00:09:30.672Z,18.40
2023-01-29T00:10:30.667Z,18.10
2023-01-29T00:11:30.768Z,18.30
2023-01-29T00:12:30.668Z,17.60
2023-01-29T00:13:30.630Z,19.20
2023-01-29T00:14:30.636Z,18.20
2023-01-29T00:15:30.618Z,17.80
2023-01-29T00:16:30.616Z,17.90
2023-01-29T00:17:30.602Z,18.80
2023-01-29T00:18:30.604Z,17.20
2023-01-29T00:19:30.594Z,18.50
2023-01-29T00:20:31.134Z,18.70
2023-01-29T00:21:31.165Z,18.90
2023-01-29T00:22:30.574Z,18.80
2023-01-29T00:23:30.583Z,18.30
2023-01-29T00:24:30.617Z,18.60
2023-01-29T00:25:30.564Z,18.30
2023-01-29T00:26:30.548Z,18.90
2023-01-29T00:27:30.543Z,19.00
2023-01-29T00:28:30.533Z,18.20
2023-01-29T00:29:30.529Z,18.60
2023-01-29T00:30:30.531Z,18.50
2023-01-29T00:31:30.616Z,18.00
2023-01-29T00:32:30.515Z,17.70
2023-01-29T00:33:30.500Z,18.90
2023-01-29T00:34:30.503Z,18.30
2023-01-29T00:35:30.522Z,18.20
2023-01-29T00:36:30.489Z,18.30
2023-01-29T00:37:30.632Z,18.60
2023-01-29T00:38:30.477Z,18.30
2023-01-29T00:39:46.030Z,18.20
2023-01-29T00:40:30.657Z,18.60
2023-01-29T00:41:30.447Z,19.40
2023-01-29T00:42:30.455Z,18.80
2023-01-29T00:43:30.441Z,18.50
2023-01-29T00:44:30.446Z,18.10
2023-01-29T00:45:30.435Z,19.10
2023-01-29T00:46:30.472Z,17.60
2023-01-29T00:47:30.433Z,18.00
2023-01-29T00:48:30.419Z,18.70
2023-01-29T00:49:30.462Z,18.00
2023-01-29T00:50:30.423Z,18.70
2023-01-29T00:51:30.415Z,18.00
2023-01-29T00:52:30.408Z,18.90
2023-01-29T00:53:30.375Z,17.60
2023-01-29T00:54:32.383Z,19.30
2023-01-29T00:55:30.420Z,18.80
2023-01-29T00:56:30.373Z,18.30
2023-01-29T00:57:30.367Z,18.70
2023-01-29T00:58:30.351Z,17.10
2023-01-29T00:59:30.357Z,18.80
2023-01-29T01:00:30.460Z,18.40
2023-01-29T01:01:30.334Z,18.40
2023-01-29T01:02:30.333Z,18.50
2023-01-29T01:03:30.319Z,18.20
2023-01-29T01:04:30.321Z,19.10
2023-01-29T01:05:30.413Z,17.40
2023-01-29T01:06:30.312Z,18.50
2023-01-29T01:07:30.307Z,18.30
2023-01-29T01:08:30.323Z,18.40
2023-01-29T01:09:30.287Z,18.90
2023-01-29T01:10:30.303Z,17.20
2023-01-29T01:11:30.277Z,17.20
2023-01-29T01:12:30.368Z,18.40
2023-01-29T01:13:30.255Z,17.80
2023-01-29T01:14:30.264Z,17.90
2023-01-29T01:15:30.265Z,17.70
2023-01-29T01:16:30.289Z,18.10
2023-01-29T01:17:30.239Z,18.60
2023-01-29T01:18:30.245Z,18.70
2023-01-29T01:19:30.232Z,17.00
2023-01-29T01:20:30.375Z,17.10
2023-01-29T01:21:30.231Z,16.60
2023-01-29T01:22:30.245Z,17.40
2023-01-29T01:23:30.218Z,17.30
2023-01-29T01:24:30.332Z,16.80
2023-01-29T01:25:30.202Z,17.50
2023-01-29T01:26:30.186Z,17.70
2023-01-29T01:27:30.191Z,17.00
2023-01-29T01:28:30.171Z,16.80
2023-01-29T01:29:30.164Z,18.10
2023-01-29T01:30:30.201Z,17.20
2023-01-29T01:31:30.195Z,17.70
2023-01-29T01:32:30.146Z,17.90
2023-01-29T01:33:30.140Z,17.20
2023-01-29T01:34:30.141Z,18.10
2023-01-29T01:35:30.150Z,18.30
2023-01-29T01:36:30.131Z,18.30
2023-01-29T01:37:30.131Z,17.10
2023-01-29T01:38:30.148Z,17.90
2023-01-29T01:39:30.116Z,18.30
2023-01-29T01:40:30.117Z,17.80
2023-01-29T01:41:30.086Z,17.90
2023-01-29T01:42:30.091Z,17.30
2023-01-29T01:43:30.171Z,17.60
2023-01-29T01:44:30.077Z,18.50
2023-01-29T01:45:30.174Z,17.80
2023-01-29T01:46:30.066Z,18.70
2023-01-29T01:47:30.069Z,17.50
2023-01-29T01:48:30.053Z,16.60
2023-01-29T01:49:30.053Z,18.60
2023-01-29T01:50:30.064Z,18.90
2023-01-29T01:51:30.033Z,18.00
2023-01-29T01:52:30.033Z,18.00
2023-01-29T01:53:30.012Z,18.10
2023-01-29T01:54:30.063Z,18.10
2023-01-29T01:55:30.048Z,18.60
2023-01-29T01:56:30.022Z,19.80
2023-01-29T01:57:30.692Z,17.90
2023-01-29T01:58:30.959Z,19.10
2023-01-29T01:59:30.080Z,18.30
2023-01-29T02:00:30.088Z,18.30
2023-01-29T02:01:30.116Z,18.10
2023-01-29T02:02:30.109Z,18.50
2023-01-29T02:03:30.155Z,18.20
2023-01-29T02:04:30.186Z,17.90
2023-01-29T02:05:30.200Z,17.80
2023-01-29T02:06:30.340Z,18.50
2023-01-29T02:07:30.336Z,18.50
2023-01-29T02:08:30.353Z,19.00
2023-01-29T02:09:30.148Z,18.70
2023-01-29T02:10:29.968Z,18.60
2023-01-29T02:11:30.581Z,18.10
2023-01-29T02:12:30.575Z,19.60
2023-01-29T02:13:30.245Z,17.50
2023-01-29T02:14:30.670Z,17.50
2023-01-29T02:15:30.394Z,17.50
2023-01-29T02:16:30.844Z,17.80
2023-01-29T02:17:30.844Z,17.30
2023-01-29T02:18:30.855Z,17.30
2023-01-29T02:19:29.879Z,18.10
2023-01-29T02:20:29.888Z,17.20
2023-01-29T02:21:29.893Z,17.50
2023-01-29T02:22:29.872Z,17.20
2023-01-29T02:23:29.872Z,18.10
2023-01-29T02:24:30.098Z,18.60
2023-01-29T02:25:30.680Z,17.80
2023-01-29T02:26:30.135Z,17.40
2023-01-29T02:27:29.831Z,17.90
2023-01-29T02:28:30.651Z,16.80
2023-01-29T02:29:30.817Z,18.20
2023-01-29T02:30:29.832Z,17.90
2023-01-29T02:31:30.728Z,18.50
2023-01-29T02:32:30.740Z,18.20
2023-01-29T02:33:29.789Z,18.40
2023-01-29T02:34:29.788Z,18.30
2023-01-29T02:35:29.839Z,18.00
2023-01-29T02:36:29.788Z,18.40
2023-01-29T02:37:29.787Z,17.80
2023-01-29T02:38:29.936Z,18.20
2023-01-29T02:39:29.955Z,18.30
2023-01-29T02:40:29.956Z,18.20
2023-01-29T02:41:29.755Z,18.00
2023-01-29T02:42:30.028Z,17.80
2023-01-29T02:43:30.174Z,18.60
2023-01-29T02:44:29.851Z,17.70
2023-01-29T02:45:30.193Z,18.70
2023-01-29T02:46:30.202Z,18.10
2023-01-29T02:47:30.265Z,17.90
2023-01-29T02:48:30.014Z,17.80
2023-01-29T02:49:29.819Z,18.70
2023-01-29T02:50:29.832Z,18.50
2023-01-29T02:51:30.451Z,18.30
2023-01-29T02:52:29.851Z,17.60
2023-01-29T02:53:29.683Z,18.20
2023-01-29T02:54:29.668Z,18.40
2023-01-29T02:55:30.111Z,17.70
2023-01-29T02:56:30.088Z,18.20
2023-01-29T02:57:30.107Z,17.60
2023-01-29T02:58:30.094Z,18.00
2023-01-29T02:59:30.127Z,18.40
2023-01-29T03:00:30.145Z,18.10
2023-01-29T03:01:29.759Z,18.10
2023-01-29T03:02:30.013Z,18.10
2023-01-29T03:03:30.139Z,18.20
2023-01-29T03:04:30.127Z,18.80
2023-01-29T03:05:29.803Z,17.70
2023-01-29T03:06:29.598Z,17.80
2023-01-29T03:07:29.577Z,17.80
2023-01-29T03:08:30.606Z,17.40
2023-01-29T03:09:30.176Z,17.90
2023-01-29T03:10:29.755Z,18.10
2023-01-29T03:11:29.605Z,17.80
2023-01-29T03:12:29.569Z,18.60
2023-01-29T03:13:29.568Z,18.10
2023-01-29T03:14:29.574Z,18.20
2023-01-29T03:15:29.631Z,18.30
2023-01-29T03:16:29.542Z,17.60
2023-01-29T03:17:29.818Z,18.30
2023-01-29T03:18:29.814Z,17.50
2023-01-29T03:19:29.502Z,18.70
2023-01-29T03:20:29.542Z,17.90
2023-01-29T03:21:29.494Z,17.80
2023-01-29T03:22:29.841Z,18.10
2023-01-29T03:23:30.050Z,18.10
2023-01-29T03:24:29.490Z,18.20
2023-01-29T03:25:29.477Z,17.90
2023-01-29T03:26:29.605Z,18.00
2023-01-29T03:27:29.470Z,18.60
2023-01-29T03:28:29.609Z,18.70
2023-01-29T03:29:29.437Z,18.10
2023-01-29T03:30:29.431Z,18.90
2023-01-29T03:31:29.573Z,18.40
2023-01-29T03:32:29.429Z,18.50
2023-01-29T03:33:29.516Z,18.40
2023-01-29T03:34:29.407Z,18.10
2023-01-29T03:35:29.396Z,18.00
2023-01-29T03:36:29.417Z,18.70
2023-01-29T03:37:29.389Z,18.60
2023-01-29T03:38:29.385Z,18.20
2023-01-29T03:39:29.410Z,19.00
2023-01-29T03:40:29.364Z,18.60
2023-01-29T03:41:29.391Z,18.20
2023-01-29T03:42:29.364Z,18.30
2023-01-29T03:43:29.572Z,18.40
2023-01-29T03:44:29.353Z,18.20
2023-01-29T03:45:29.419Z,18.00
2023-01-29T03:46:29.359Z,17.80
2023-01-29T03:47:29.603Z,18.70
2023-01-29T03:48:29.325Z,17.70
2023-01-29T03:49:29.312Z,18.80
2023-01-29T03:50:29.311Z,18.00
2023-01-29T03:51:29.370Z,17.70
2023-01-29T03:52:29.299Z,18.80
2023-01-29T03:53:29.307Z,18.00
2023-01-29T03:54:29.692Z,18.80
2023-01-29T03:55:29.299Z,17.70
2023-01-29T03:56:29.289Z,18.30
2023-01-29T03:57:29.274Z,17.80
2023-01-29T03:58:29.290Z,18.30
2023-01-29T03:59:29.267Z,18.50
2023-01-29T04:00:29.809Z,18.30
2023-01-29T04:01:29.307Z,18.90
2023-01-29T04:02:29.247Z,18.50
2023-01-29T04:03:29.255Z,18.60
2023-01-29T04:04:29.355Z,19.20
2023-01-29T04:05:29.225Z,18.30
2023-01-29T04:06:29.225Z,17.90
2023-01-29T04:07:29.212Z,19.50
2023-01-29T04:08:29.200Z,18.10
2023-01-29T04:09:29.202Z,18.70
2023-01-29T04:10:29.186Z,18.70
2023-01-29T04:11:29.413Z,19.50
2023-01-29T04:12:29.182Z,18.90
2023-01-29T04:13:29.191Z,20.90
2023-01-29T04:14:29.184Z,19.60
2023-01-29T04:15:29.160Z,19.70
2023-01-29T04:16:29.718Z,19.10
2023-01-29T04:17:29.149Z,19.30
2023-01-29T04:18:29.142Z,19.20
2023-01-29T04:19:29.132Z,19.80
2023-01-29T04:20:29.203Z,20.30
2023-01-29T04:21:29.133Z,17.90
2023-01-29T04:22:29.131Z,19.00
2023-01-29T04:23:29.130Z,18.50
2023-01-29T04:24:29.913Z,18.80
2023-01-29T04:25:29.169Z,18.80
2023-01-29T04:26:29.119Z,18.00
2023-01-29T04:27:29.086Z,18.00
2023-01-29T04:28:29.093Z,18.20
2023-01-29T04:29:30.130Z,18.10
2023-01-29T04:30:29.078Z,18.60
2023-01-29T04:31:29.248Z,18.30
2023-01-29T04:32:29.076Z,18.00
2023-01-29T04:33:29.069Z,17.80
2023-01-29T04:34:29.044Z,17.90
2023-01-29T04:35:29.098Z,18.40
2023-01-29T04:36:29.066Z,18.30
2023-01-29T04:37:29.116Z,16.60
2023-01-29T04:38:29.838Z,17.20
2023-01-29T04:39:29.181Z,17.00
2023-01-29T04:40:29.014Z,18.50
2023-01-29T04:41:29.015Z,17.50
2023-01-29T04:42:29.001Z,18.10
2023-01-29T04:43:28.985Z,17.70
2023-01-29T04:44:28.979Z,17.20
2023-01-29T04:45:28.990Z,18.00
2023-01-29T04:46:28.989Z,17.10
2023-01-29T04:47:28.995Z,16.70
2023-01-29T04:48:28.963Z,17.90
2023-01-29T04:49:28.949Z,17.10
2023-01-29T04:50:28.980Z,16.10
2023-01-29T04:51:28.957Z,17.20
2023-01-29T04:52:28.937Z,16.60
2023-01-29T04:53:28.942Z,16.80
2023-01-29T04:54:28.928Z,17.80
2023-01-29T04:55:29.023Z,17.50
2023-01-29T04:56:28.917Z,17.40
2023-01-29T04:57:28.917Z,17.20
2023-01-29T04:58:28.897Z,18.50
2023-01-29T04:59:28.893Z,16.80
2023-01-29T05:00:29.088Z,17.30
2023-01-29T05:01:28.911Z,16.20
2023-01-29T05:02:28.885Z,17.10
2023-01-29T05:03:28.877Z,17.60
2023-01-29T05:04:28.864Z,18.10
2023-01-29T05:05:28.848Z,16.30
2023-01-29T05:06:28.948Z,17.50
2023-01-29T05:07:28.881Z,16.70
2023-01-29T05:08:28.841Z,16.50
2023-01-29T05:09:28.823Z,17.20
2023-01-29T05:10:28.835Z,15.90
2023-01-29T05:11:28.831Z,16.90
2023-01-29T05:12:28.809Z,15.80
2023-01-29T05:13:28.804Z,15.70
2023-01-29T05:14:28.799Z,16.90
2023-01-29T05:15:28.790Z,17.00
2023-01-29T05:16:28.846Z,17.40
2023-01-29T05:17:28.899Z,16.30
2023-01-29T05:18:29.238Z,16.60
2023-01-29T05:19:29.441Z,16.40
2023-01-29T05:20:28.755Z,16.70
2023-01-29T05:21:28.766Z,15.70
2023-01-29T05:22:28.745Z,16.00
2023-01-29T05:23:28.737Z,16.80
2023-01-29T05:24:28.767Z,16.60
2023-01-29T05:25:28.776Z,16.10
2023-01-29T05:26:28.738Z,16.80
2023-01-29T05:27:28.750Z,17.60
2023-01-29T05:28:28.708Z,16.10
2023-01-29T05:29:28.695Z,16.60
2023-01-29T05:30:28.695Z,17.60
2023-01-29T05:31:28.811Z,16.80
2023-01-29T05:32:28.682Z,16.20
2023-01-29T05:33:28.680Z,17.40
2023-01-29T05:34:28.670Z,16.00
2023-01-29T05:35:28.669Z,17.60
2023-01-29T05:36:28.726Z,16.60
2023-01-29T05:37:28.755Z,17.00
2023-01-29T05:38:28.832Z,17.40
2023-01-29T05:39:28.647Z,16.40
2023-01-29T05:40:28.681Z,17.00
2023-01-29T05:41:28.702Z,17.20
2023-01-29T05:42:28.762Z,16.40
2023-01-29T05:43:28.897Z,16.00
2023-01-29T05:44:28.723Z,16.80
2023-01-29T05:45:28.610Z,16.60
2023-01-29T05:46:28.652Z,16.30
2023-01-29T05:47:29.018Z,16.60
2023-01-29T05:48:29.097Z,16.10
2023-01-29T05:49:28.877Z,17.40
2023-01-29T05:50:29.019Z,17.40
2023-01-29T05:51:28.628Z,16.70
2023-01-29T05:52:28.560Z,16.70
2023-01-29T05:53:28.549Z,16.00
2023-01-29T05:54:29.083Z,16.90
2023-01-29T05:55:28.710Z,16.70
2023-01-29T05:56:28.569Z,16.90
2023-01-29T05:57:29.138Z,17.10
2023-01-29T05:58:28.525Z,17.20
2023-01-29T05:59:28.507Z,17.70
2023-01-29T06:00:29.088Z,16.90
2023-01-29T06:01:29.142Z,18.00
2023-01-29T06:02:28.889Z,17.30
2023-01-29T06:03:28.485Z,17.60
2023-01-29T06:04:28.493Z,17.40
2023-01-29T06:05:28.475Z,17.40
2023-01-29T06:06:28.522Z,16.70
2023-01-29T06:07:28.592Z,17.00
2023-01-29T06:08:28.523Z,16.70
2023-01-29T06:09:28.511Z,17.00
2023-01-29T06:10:28.743Z,16.80
2023-01-29T06:11:28.750Z,16.40
2023-01-29T06:12:28.440Z,16.30
2023-01-29T06:13:28.769Z,16.90
2023-01-29T06:14:28.562Z,16.90
2023-01-29T06:15:28.420Z,16.50
2023-01-29T06:16:28.623Z,16.80
2023-01-29T06:17:28.444Z,17.10
2023-01-29T06:18:28.410Z,18.20
2023-01-29T06:19:28.423Z,17.60
2023-01-29T06:20:29.858Z,17.60
2023-01-29T06:21:28.817Z,17.40
2023-01-29T06:22:28.837Z,17.60
2023-01-29T06:23:28.828Z,17.10
2023-01-29T06:24:28.494Z,18.00
2023-01-29T06:25:28.387Z,17.70
2023-01-29T06:26:28.872Z,16.70
2023-01-29T06:27:28.521Z,17.40
2023-01-29T06:28:29.075Z,18.30
2023-01-29T06:29:28.667Z,18.20
2023-01-29T06:30:29.097Z,17.10
2023-01-29T06:31:38.170Z,17.40
2023-01-29T06:32:28.897Z,18.40
2023-01-29T06:33:29.472Z,17.50
2023-01-29T06:34:28.356Z,18.80
2023-01-29T06:35:28.305Z,17.00
2023-01-29T06:36:28.325Z,17.70
2023-01-29T06:37:29.273Z,18.00
2023-01-29T06:38:29.136Z,18.60
2023-01-29T06:39:28.932Z,17.20
2023-01-29T06:40:28.953Z,18.20
2023-01-29T06:41:28.273Z,18.10
2023-01-29T06:42:28.294Z,17.70
2023-01-29T06:43:28.544Z,17.40
2023-01-29T06:44:28.761Z,17.70
2023-01-29T06:45:28.403Z,17.50
2023-01-29T06:46:28.792Z,18.00
2023-01-29T06:47:28.809Z,17.00
2023-01-29T06:48:28.410Z,18.20
2023-01-29T06:49:28.268Z,17.60
2023-01-29T06:50:28.253Z,18.10
2023-01-29T06:51:28.250Z,17.00
2023-01-29T06:52:28.260Z,17.80
2023-01-29T06:53:28.227Z,17.40
2023-01-29T06:54:28.450Z,17.20
2023-01-29T06:55:28.489Z,18.50
2023-01-29T06:56:28.482Z,16.80
2023-01-29T06:57:28.451Z,17.10
2023-01-29T06:58:28.476Z,17.20
2023-01-29T06:59:28.666Z,17.70
2023-01-29T07:00:30.623Z,17.50
2023-01-29T07:01:36.236Z,17.90
2023-01-29T07:02:28.761Z,17.60
2023-01-29T07:03:28.505Z,17.00
2023-01-29T07:04:28.153Z,16.90
2023-01-29T07:05:28.901Z,17.40
2023-01-29T07:06:28.142Z,16.80
2023-01-29T07:07:28.303Z,16.20
2023-01-29T07:08:28.147Z,18.40
2023-01-29T07:09:28.392Z,17.60
2023-01-29T07:10:28.540Z,17.60
2023-01-29T07:11:28.737Z,16.90
2023-01-29T07:12:28.143Z,18.00
2023-01-29T07:13:28.087Z,17.90
2023-01-29T07:14:28.784Z,16.80
2023-01-29T07:15:28.390Z,17.60
2023-01-29T07:16:28.322Z,17.60
2023-01-29T07:17:28.570Z,18.60
2023-01-29T07:18:28.376Z,17.60
2023-01-29T07:19:28.031Z,17.50
2023-01-29T07:20:28.191Z,17.10
2023-01-29T07:21:28.428Z,17.30
2023-01-29T07:22:28.041Z,17.60
2023-01-29T07:23:28.448Z,19.40
2023-01-29T07:24:28.878Z,17.70
2023-01-29T07:25:28.013Z,17.20
2023-01-29T07:26:28.846Z,17.10
2023-01-29T07:27:28.027Z,17.90
2023-01-29T07:28:28.037Z,17.40
2023-01-29T07:29:28.050Z,18.50
2023-01-29T07:30:28.143Z,17.80
2023-01-29T07:31:28.130Z,17.50
2023-01-29T07:32:28.264Z,18.40
2023-01-29T07:33:27.947Z,17.90
2023-01-29T07:34:28.085Z,18.10
2023-01-29T07:35:28.083Z,18.00
2023-01-29T07:36:27.952Z,18.80
2023-01-29T07:37:28.091Z,17.90
2023-01-29T07:38:28.332Z,18.80
2023-01-29T07:39:27.918Z,18.40
2023-01-29T07:40:28.196Z,17.30
2023-01-29T07:41:27.912Z,17.90
2023-01-29T07:42:27.972Z,18.00
2023-01-29T07:43:27.967Z,18.50
2023-01-29T07:44:27.972Z,18.30
2023-01-29T07:45:28.610Z,17.50
2023-01-29T07:46:28.570Z,17.80
2023-01-29T07:47:27.988Z,17.90
2023-01-29T07:48:27.863Z,19.10
2023-01-29T07:49:27.885Z,18.60
2023-01-29T07:50:27.895Z,18.60
2023-01-29T07:51:27.893Z,18.20
2023-01-29T07:52:27.897Z,17.80
2023-01-29T07:53:27.912Z,17.20
2023-01-29T07:54:27.918Z,19.80
2023-01-29T07:55:27.939Z,17.70
2023-01-29T07:56:27.830Z,18.60
2023-01-29T07:57:27.963Z,18.70
2023-01-29T07:58:27.985Z,18.80
2023-01-29T07:59:27.986Z,18.10
2023-01-29T08:00:28.038Z,18.20
2023-01-29T08:01:27.779Z,18.60
2023-01-29T08:02:28.089Z,18.10
2023-01-29T08:03:28.047Z,17.90
2023-01-29T08:04:27.733Z,18.50
2023-01-29T08:05:27.764Z,18.10
2023-01-29T08:06:27.734Z,18.10
2023-01-29T08:07:27.884Z,18.60
2023-01-29T08:08:27.712Z,17.60
2023-01-29T08:09:27.704Z,17.80
2023-01-29T08:10:27.778Z,18.60
2023-01-29T08:11:27.720Z,17.10
2023-01-29T08:12:27.731Z,18.40
2023-01-29T08:13:27.688Z,18.20
2023-01-29T08:14:27.670Z,18.40
2023-01-29T08:15:27.820Z,19.50
2023-01-29T08:16:27.785Z,18.90
2023-01-29T08:17:27.683Z,18.80
2023-01-29T08:18:27.803Z,17.80
2023-01-29T08:19:27.809Z,18.10
2023-01-29T08:20:27.684Z,19.00
2023-01-29T08:21:27.646Z,18.00
2023-01-29T08:22:27.630Z,18.40
2023-01-29T08:23:27.633Z,19.60
2023-01-29T08:24:36.058Z,17.70
2023-01-29T08:25:28.007Z,17.90
2023-01-29T08:26:27.653Z,17.60
2023-01-29T08:27:27.843Z,18.20
2023-01-29T08:28:27.831Z,18.70
2023-01-29T08:29:27.617Z,18.10
2023-01-29T08:30:27.592Z,18.20
2023-01-29T08:31:27.913Z,17.80
2023-01-29T08:32:27.625Z,18.30
2023-01-29T08:33:38.959Z,18.70
2023-01-29T08:34:27.644Z,18.10
2023-01-29T08:35:27.854Z,18.10
2023-01-29T08:36:27.865Z,18.00
2023-01-29T08:37:27.739Z,18.60
2023-01-29T08:38:27.872Z,18.60
2023-01-29T08:39:27.604Z,18.50
2023-01-29T08:40:27.637Z,17.40
2023-01-29T08:41:27.524Z,17.90
2023-01-29T08:42:27.752Z,17.80
2023-01-29T08:43:27.701Z,18.40
2023-01-29T08:44:27.481Z,18.10
2023-01-29T08:45:27.785Z,17.70
2023-01-29T08:46:27.802Z,18.30
2023-01-29T08:47:29.410Z,17.40
2023-01-29T08:48:27.460Z,16.80
2023-01-29T08:49:27.561Z,17.40
2023-01-29T08:50:28.491Z,17.50
2023-01-29T08:51:27.591Z,16.80
2023-01-29T08:52:27.978Z,17.10
2023-01-29T08:53:28.038Z,16.50
2023-01-29T08:54:27.465Z,17.30
2023-01-29T08:55:27.786Z,17.60
2023-01-29T08:56:27.620Z,16.90
2023-01-29T08:57:28.216Z,17.30
2023-01-29T08:58:28.217Z,16.90
2023-01-29T08:59:27.470Z,16.20
2023-01-29T09:00:28.236Z,17.60
2023-01-29T09:01:27.693Z,18.10
2023-01-29T09:02:27.451Z,16.40
2023-01-29T09:03:28.936Z,17.20
2023-01-29T09:04:27.635Z,17.30
2023-01-29T09:05:28.285Z,16.60
2023-01-29T09:06:27.516Z,16.60
2023-01-29T09:07:27.735Z,17.60
2023-01-29T09:08:27.335Z,16.40
2023-01-29T09:09:27.361Z,17.00
2023-01-29T09:10:27.716Z,17.70
2023-01-29T09:11:27.654Z,17.30
2023-01-29T09:12:27.356Z,16.50
2023-01-29T09:13:27.311Z,16.90
2023-01-29T09:14:27.311Z,16.30
2023-01-29T09:15:27.316Z,16.90
2023-01-29T09:16:27.337Z,17.30
2023-01-29T09:17:27.320Z,17.10
2023-01-29T09:18:27.329Z,16.90
2023-01-29T09:19:27.329Z,16.40
2023-01-29T09:20:27.330Z,15.80
2023-01-29T09:21:27.431Z,16.50
2023-01-29T09:22:27.433Z,16.40
2023-01-29T09:23:27.434Z,16.30
2023-01-29T09:24:27.441Z,17.00
2023-01-29T09:25:27.453Z,16.60
2023-01-29T09:26:27.535Z,16.50
2023-01-29T09:27:27.457Z,16.90
2023-01-29T09:28:27.457Z,17.20
2023-01-29T09:29:27.216Z,16.20
2023-01-29T09:30:27.477Z,17.70
2023-01-29T09:31:27.610Z,16.10
2023-01-29T09:32:52.032Z,17.80
2023-01-29T09:33:27.503Z,17.40
2023-01-29T09:34:27.635Z,16.00
2023-01-29T09:35:27.666Z,16.40
2023-01-29T09:36:27.443Z,16.40
2023-01-29T09:37:27.245Z,16.90
2023-01-29T09:38:27.265Z,16.40
2023-01-29T09:39:27.665Z,15.70
2023-01-29T09:40:27.718Z,15.90
2023-01-29T09:41:27.686Z,16.70
2023-01-29T09:42:27.144Z,17.50
2023-01-29T09:43:27.695Z,16.60
2023-01-29T09:44:27.110Z,16.70
2023-01-29T09:45:27.136Z,16.60
2023-01-29T09:46:27.110Z,17.40
2023-01-29T09:47:27.129Z,17.30
2023-01-29T09:48:27.723Z,16.80
2023-01-29T09:49:27.207Z,17.40
2023-01-29T09:50:27.754Z,17.10
2023-01-29T09:51:27.419Z,16.70
2023-01-29T09:52:27.081Z,16.70
2023-01-29T09:53:27.064Z,16.50
2023-01-29T09:54:27.048Z,16.40
2023-01-29T09:55:27.169Z,17.50
2023-01-29T09:56:27.158Z,17.00
2023-01-29T09:57:27.182Z,16.90
2023-01-29T09:58:27.181Z,16.50
2023-01-29T09:59:27.188Z,17.40
2023-01-29T10:00:27.198Z,17.30
2023-01-29T10:01:27.297Z,17.80
2023-01-29T10:02:27.257Z,17.00
2023-01-29T10:03:27.030Z,16.60
2023-01-29T10:04:27.043Z,18.40
2023-01-29T10:05:27.227Z,17.20
2023-01-29T10:06:27.027Z,17.70
2023-01-29T10:07:27.046Z,16.80
2023-01-29T10:08:26.981Z,16.80
2023-01-29T10:09:27.271Z,16.50
2023-01-29T10:10:27.268Z,16.70
2023-01-29T10:11:26.972Z,17.20
2023-01-29T10:12:26.938Z,16.50
2023-01-29T10:13:26.984Z,16.80
2023-01-29T10:14:27.377Z,16.10
2023-01-29T10:15:27.395Z,16.00
2023-01-29T10:16:27.407Z,17.40
2023-01-29T10:17:26.904Z,17.20
2023-01-29T10:18:27.419Z,16.70
2023-01-29T10:19:26.914Z,16.20
2023-01-29T10:20:26.878Z,16.50
2023-01-29T10:21:27.109Z,17.00
2023-01-29T10:22:26.941Z,15.80
2023-01-29T10:23:27.460Z,16.40
2023-01-29T10:24:27.509Z,16.60
2023-01-29T10:25:27.264Z,15.60
2023-01-29T10:26:27.145Z,16.00
2023-01-29T10:27:27.480Z,16.30
2023-01-29T10:28:27.484Z,16.80
2023-01-29T10:29:26.895Z,16.20
2023-01-29T10:30:26.882Z,16.50
2023-01-29T10:31:26.889Z,16.60
2023-01-29T10:32:26.829Z,16.70
2023-01-29T10:33:26.899Z,16.40
2023-01-29T10:34:27.027Z,17.20
2023-01-29T10:35:27.020Z,16.60
2023-01-29T10:36:27.026Z,15.60
2023-01-29T10:37:27.131Z,16.30
2023-01-29T10:38:27.137Z,17.40
2023-01-29T10:39:27.259Z,16.20
2023-01-29T10:40:27.174Z,16.40
2023-01-29T10:41:26.947Z,16.40
2023-01-29T10:42:27.278Z,16.40
2023-01-29T10:43:27.380Z,15.80
2023-01-29T10:44:27.376Z,16.30
2023-01-29T10:45:27.508Z,16.20
2023-01-29T10:46:26.776Z,16.60
2023-01-29T10:47:29.272Z,16.20
2023-01-29T10:48:27.007Z,16.90
2023-01-29T10:49:27.214Z,16.40
2023-01-29T10:50:26.718Z,16.20
2023-01-29T10:51:26.985Z,15.40
2023-01-29T10:52:27.233Z,14.60
2023-01-29T10:53:26.947Z,15.80
2023-01-29T10:54:27.453Z,15.30
2023-01-29T10:55:26.742Z,16.20
2023-01-29T10:56:26.703Z,15.10
2023-01-29T10:57:26.671Z,15.50
2023-01-29T10:58:26.674Z,15.10
2023-01-29T10:59:26.632Z,14.80
2023-01-29T11:00:26.674Z,15.80
2023-01-29T11:01:26.890Z,14.60
2023-01-29T11:02:26.654Z,15.10
2023-01-29T11:03:29.097Z,15.40
2023-01-29T11:04:27.309Z,15.30
2023-01-29T11:05:27.014Z,15.60
2023-01-29T11:06:27.129Z,15.50
2023-01-29T11:07:26.610Z,16.50
2023-01-29T11:08:26.629Z,17.00
2023-01-29T11:09:26.642Z,16.30
2023-01-29T11:10:26.633Z,15.20
2023-01-29T11:11:26.748Z,16.20
2023-01-29T11:12:26.809Z,14.70
2023-01-29T11:13:26.767Z,16.30
2023-01-29T11:14:26.775Z,16.10
2023-01-29T11:15:26.793Z,15.20
2023-01-29T11:16:26.878Z,15.50
2023-01-29T11:17:26.599Z,15.40
2023-01-29T11:18:26.797Z,17.00
2023-01-29T11:19:27.016Z,15.70
2023-01-29T11:20:26.534Z,15.50
2023-01-29T11:21:26.920Z,16.30
2023-01-29T11:22:27.134Z,16.60
2023-01-29T11:23:26.642Z,16.50
2023-01-29T11:24:26.637Z,15.70
2023-01-29T11:25:26.939Z,15.50
2023-01-29T11:26:26.488Z,15.00
2023-01-29T11:27:26.524Z,15.20
2023-01-29T11:28:26.453Z,15.10
2023-01-29T11:29:26.675Z,15.60
2023-01-29T11:30:26.476Z,16.50
2023-01-29T11:31:27.338Z,16.80
2023-01-29T11:32:26.909Z,16.10
2023-01-29T11:33:27.192Z,14.60
2023-01-29T11:34:26.422Z,14.50
2023-01-29T11:35:27.225Z,14.80
2023-01-29T11:36:28.419Z,15.90
2023-01-29T11:37:27.014Z,16.00
2023-01-29T11:38:27.288Z,16.70
2023-01-29T11:39:26.955Z,15.00
2023-01-29T11:40:26.419Z,14.80
2023-01-29T11:41:26.631Z,15.70
2023-01-29T11:42:26.369Z,15.50
2023-01-29T11:43:26.359Z,15.60
2023-01-29T11:44:27.200Z,14.90
2023-01-29T11:45:26.381Z,15.60
2023-01-29T11:46:26.351Z,15.40
2023-01-29T11:47:26.390Z,16.30
2023-01-29T11:48:26.469Z,18.00
2023-01-29T11:49:26.398Z,16.00
2023-01-29T11:50:26.612Z,15.80
2023-01-29T11:51:26.495Z,15.90
2023-01-29T11:52:26.626Z,15.60
2023-01-29T11:53:26.714Z,15.90
2023-01-29T11:54:26.636Z,15.50
2023-01-29T11:55:26.318Z,16.20
2023-01-29T11:56:26.646Z,16.20
2023-01-29T11:57:26.866Z,16.50
2023-01-29T11:58:26.956Z,16.60
2023-01-29T11:59:26.345Z,16.80
2023-01-29T12:00:26.275Z,15.80
2023-01-29T12:01:26.275Z,16.20
2023-01-29T12:02:26.284Z,16.50
2023-01-29T12:03:26.320Z,17.60
2023-01-29T12:04:26.310Z,16.00
2023-01-29T12:05:26.314Z,15.80
2023-01-29T12:06:26.323Z,15.70
2023-01-29T12:07:26.943Z,17.30
2023-01-29T12:08:26.201Z,15.50
2023-01-29T12:09:26.225Z,16.10
2023-01-29T12:10:26.221Z,15.60
2023-01-29T12:11:26.223Z,15.90
2023-01-29T12:12:26.175Z,14.90
2023-01-29T12:13:26.177Z,14.70
2023-01-29T12:14:26.173Z,15.20
2023-01-29T12:15:26.272Z,15.60
2023-01-29T12:16:26.213Z,15.50
2023-01-29T12:17:26.307Z,16.00
2023-01-29T12:18:26.309Z,15.70
2023-01-29T12:19:26.323Z,15.60
2023-01-29T12:20:26.341Z,15.60
2023-01-29T12:21:26.360Z,15.70
2023-01-29T12:22:26.109Z,16.10
2023-01-29T12:23:26.110Z,16.50
2023-01-29T12:24:26.123Z,16.00
2023-01-29T12:25:26.241Z,16.00
2023-01-29T12:26:26.264Z,15.90
2023-01-29T12:27:26.275Z,15.50
2023-01-29T12:28:26.332Z,16.20
2023-01-29T12:29:26.059Z,16.20
2023-01-29T12:30:26.554Z,16.10
2023-01-29T12:31:26.224Z,15.70
2023-01-29T12:32:26.511Z,16.00
2023-01-29T12:33:26.498Z,16.60
2023-01-29T12:34:26.505Z,15.30
2023-01-29T12:35:26.530Z,16.20
2023-01-29T12:36:26.542Z,15.60
2023-01-29T12:37:26.017Z,15.20
2023-01-29T12:38:26.004Z,15.80
2023-01-29T12:39:25.995Z,15.90
2023-01-29T12:40:26.144Z,17.10
2023-01-29T12:41:26.030Z,16.10
2023-01-29T12:42:26.055Z,15.20
2023-01-29T12:43:26.030Z,15.20
2023-01-29T12:44:26.033Z,15.80
2023-01-29T12:45:26.041Z,15.80
2023-01-29T12:46:26.084Z,16.20
2023-01-29T12:47:26.066Z,16.10
2023-01-29T12:48:25.995Z,16.20
2023-01-29T12:49:25.992Z,15.20
2023-01-29T12:50:26.013Z,15.50
2023-01-29T12:51:26.212Z,15.50
2023-01-29T12:52:25.901Z,15.40